Time;durP1;ratioP1;P1;durP2;ratioP2;P2;SDS_P1;SDS_P2;PMS_P1;PMS_P2;Temp;Humidity;BMP_temperature;BMP_pressure;BME280_temperature;BME280_humidity;BME280_pressure;Samples;Min_cycle;Max_cycle;Signal;HPM_P1;HPM_P2
2022/09/23 00:01:31;;;;;;;13.60;11.30;;;9.20;99.90;;;;;;5045718;28;20060;-35
2022/09/23 00:03:58;;;;;;;13.10;10.85;;;10.00;99.90;;;;;;5046434;28;20041;-35
2022/09/23 00:06:27;;;;;;;13.15;11.95;;;9.40;99.90;;;;;;5046193;28;20398;-35
2022/09/23 00:08:53;;;;;;;12.40;11.10;;;9.40;99.90;;;;;;5046226;28;20040;-35
2022/09/23 00:11:25;;;;;;;13.63;11.95;;;9.40;99.90;;;;;;5045772;28;20049;-35
2022/09/23 00:13:56;;;;;;;14.05;12.05;;;9.10;99.90;;;;;;5028078;28;20123;-35
2022/09/23 00:16:27;;;;;;;13.68;12.25;;;9.30;99.90;;;;;;5045101;28;20124;-35
2022/09/23 00:18:53;;;;;;;13.85;11.80;;;9.20;99.90;;;;;;5046179;28;20095;-36
2022/09/23 00:21:20;;;;;;;14.25;12.68;;;9.30;99.90;;;;;;5045829;28;20037;-35
2022/09/23 00:23:46;;;;;;;12.65;11.48;;;8.90;99.90;;;;;;5046197;28;20148;-35
2022/09/23 00:26:14;;;;;;;14.52;13.05;;;9.20;99.90;;;;;;5046935;28;20051;-35
2022/09/23 00:28:41;;;;;;;15.27;13.43;;;9.00;99.90;;;;;;5046887;28;20041;-35
2022/09/23 00:31:09;;;;;;;18.23;14.20;;;9.10;99.90;;;;;;5046414;28;20094;-35
2022/09/23 00:33:35;;;;;;;14.30;13.02;;;8.80;99.90;;;;;;5046016;28;20045;-35
2022/09/23 00:36:03;;;;;;;13.52;12.25;;;9.80;99.90;;;;;;5045583;28;20410;-35
2022/09/23 00:38:29;;;;;;;14.10;12.73;;;9.10;99.90;;;;;;5045458;28;20095;-35
2022/09/23 00:40:55;;;;;;;13.60;12.15;;;8.80;99.90;;;;;;5045740;28;20556;-35
2022/09/23 00:43:36;;;;;;;16.42;13.88;;;8.70;99.90;;;;;;5045363;28;20206;-35
2022/09/23 00:46:02;;;;;;;15.18;13.27;;;8.90;99.90;;;;;;5045614;28;20049;-35
2022/09/23 00:48:28;;;;;;;18.13;14.07;;;9.40;99.90;;;;;;5045702;28;20368;-35
2022/09/23 00:50:54;;;;;;;16.50;13.55;;;8.90;99.90;;;;;;5045490;28;20045;-35
2022/09/23 00:53:22;;;;;;;17.52;13.95;;;8.50;99.90;;;;;;5045376;28;20044;-36
2022/09/23 00:55:56;;;;;;;16.50;14.90;;;9.00;99.90;;;;;;5045959;28;20138;-35
2022/09/23 00:58:26;;;;;;;16.20;14.05;;;8.80;99.90;;;;;;5045937;28;20499;-35
2022/09/23 01:00:53;;;;;;;17.08;13.23;;;8.70;99.90;;;;;;5046011;28;20110;-35
2022/09/23 01:03:21;;;;;;;16.63;14.32;;;9.10;99.90;;;;;;5048730;28;20048;-35
2022/09/23 01:05:47;;;;;;;14.85;13.35;;;8.80;99.90;;;;;;5049560;28;20045;-35
2022/09/23 01:08:14;;;;;;;14.32;12.43;;;9.10;99.90;;;;;;5049229;28;20037;-35
2022/09/23 01:10:54;;;;;;;15.73;14.00;;;8.60;99.90;;;;;;5048661;28;20111;-35
2022/09/23 01:13:55;;;;;;;15.60;12.20;;;8.80;99.90;;;;;;5048617;28;20049;-35
2022/09/23 01:16:40;;;;;;;14.90;13.48;;;8.70;99.90;;;;;;5010082;28;20056;-35
2022/09/23 01:19:17;;;;;;;13.68;12.27;;;8.70;99.90;;;;;;5049394;28;20714;-35
2022/09/23 01:22:03;;;;;;;16.70;13.15;;;9.60;99.90;;;;;;5048961;28;20045;-35
2022/09/23 01:24:56;;;;;;;14.52;13.02;;;8.70;99.90;;;;;;5049063;28;20048;-35
2022/09/23 01:27:50;;;;;;;18.10;13.20;;;8.70;99.90;;;;;;5049001;28;20055;-35
2022/09/23 01:30:35;;;;;;;15.18;13.60;;;8.70;99.90;;;;;;5049323;28;20128;-35
2022/09/23 01:33:13;;;;;;;16.63;13.98;;;8.70;99.90;;;;;;5048897;28;20127;-36
2022/09/23 01:36:01;;;;;;;14.65;12.90;;;8.50;99.90;;;;;;5048433;28;20052;-35
2022/09/23 01:38:39;;;;;;;14.73;13.13;;;8.30;99.90;;;;;;5048245;28;20048;-35
2022/09/23 01:41:14;;;;;;;17.25;14.70;;;8.90;99.90;;;;;;5047959;28;20049;-35
2022/09/23 01:43:59;;;;;;;13.60;12.25;;;8.60;99.90;;;;;;5048096;28;20490;-35
2022/09/23 01:46:40;;;;;;;13.63;12.30;;;8.50;99.90;;;;;;5048176;28;20049;-35
2022/09/23 01:49:20;;;;;;;15.00;13.55;;;8.30;99.90;;;;;;5048140;28;20510;-35
2022/09/23 01:52:14;;;;;;;15.63;12.35;;;8.90;99.90;;;;;;5048137;28;20120;-36
2022/09/23 01:54:52;;;;;;;16.80;13.27;;;8.70;99.90;;;;;;5032023;28;20053;-35
2022/09/23 01:57:27;;;;;;;16.02;14.48;;;8.50;99.90;;;;;;5048350;28;20403;-35
2022/09/23 02:00:03;;;;;;;15.43;13.85;;;8.50;99.90;;;;;;5049229;28;20811;-36
2022/09/23 02:02:49;;;;;;;15.32;13.73;;;8.50;99.90;;;;;;5048032;28;20128;-35
2022/09/23 02:05:35;;;;;;;15.20;13.65;;;8.50;99.90;;;;;;5047554;28;20606;-35
2022/09/23 02:08:10;;;;;;;15.50;14.00;;;8.40;99.90;;;;;;5047416;28;20522;-35
2022/09/23 02:10:46;;;;;;;16.50;14.90;;;8.40;99.90;;;;;;5047829;28;20057;-35
2022/09/23 02:13:34;;;;;;;15.57;14.07;;;8.40;99.90;;;;;;5047776;28;20475;-36
2022/09/23 02:16:03;;;;;;;17.42;14.27;;;8.30;99.90;;;;;;5048789;28;20489;-36
2022/09/23 02:18:40;;;;;;;16.15;14.45;;;8.40;99.90;;;;;;5048258;28;20832;-35
2022/09/23 02:21:08;;;;;;;15.80;14.10;;;9.10;99.90;;;;;;5048330;28;20116;-35
2022/09/23 02:23:39;;;;;;;17.45;14.65;;;8.20;99.90;;;;;;5047437;28;20214;-35
2022/09/23 02:26:18;;;;;;;14.85;13.35;;;8.40;99.90;;;;;;5047768;28;20705;-35
2022/09/23 02:29:02;;;;;;;16.63;13.52;;;8.20;99.90;;;;;;5047085;28;20487;-35
2022/09/23 02:31:38;;;;;;;19.38;14.40;;;8.30;99.90;;;;;;5047514;28;20095;-35
2022/09/23 02:34:31;;;;;;;15.82;14.20;;;8.30;99.90;;;;;;5047660;28;20084;-35
2022/09/23 02:37:15;;;;;;;16.75;15.05;;;8.40;99.90;;;;;;5047526;28;20053;-35
2022/09/23 02:39:50;;;;;;;16.77;15.05;;;8.20;99.90;;;;;;5047495;28;20045;-35
2022/09/23 02:42:22;;;;;;;15.95;14.45;;;8.40;99.90;;;;;;5047436;28;20386;-35
2022/09/23 02:44:48;;;;;;;15.43;13.43;;;8.30;99.90;;;;;;5047777;28;20052;-35
2022/09/23 02:47:15;;;;;;;14.63;13.15;;;8.50;99.90;;;;;;5047693;28;20057;-35
2022/09/23 02:49:41;;;;;;;16.10;14.43;;;8.30;99.90;;;;;;5047590;28;20041;-35
2022/09/23 02:52:06;;;;;;;16.45;14.60;;;8.50;99.90;;;;;;5047882;28;20441;-35
2022/09/23 02:54:33;;;;;;;15.57;13.98;;;8.40;99.90;;;;;;5047619;28;20484;-35
2022/09/23 02:57:02;;;;;;;16.70;13.55;;;8.30;99.90;;;;;;5047029;28;20052;-35
2022/09/23 02:59:29;;;;;;;18.63;15.88;;;8.60;99.90;;;;;;5047180;28;20041;-35
2022/09/23 03:02:13;;;;;;;17.38;15.40;;;8.60;99.90;;;;;;5046957;28;20391;-35
2022/09/23 03:04:53;;;;;;;17.60;15.60;;;8.10;99.90;;;;;;5047130;28;20044;-35
2022/09/23 03:08:06;;;;;;;18.02;15.80;;;7.90;99.90;;;;;;5046906;28;20076;-35
2022/09/23 03:10:55;;;;;;;;;;;7.90;99.90;;;;;;4944497;28;20095;-35
2022/09/23 03:13:47;;;;;;;16.90;15.07;;;7.90;99.90;;;;;;4960087;28;19922;-35
2022/09/23 03:16:51;;;;;;;16.35;14.75;;;8.00;99.90;;;;;;5030096;28;20082;-35
2022/09/23 03:19:30;;;;;;;18.30;16.42;;;7.70;99.90;;;;;;5029432;28;20383;-35
2022/09/23 03:22:17;;;;;;;16.65;14.55;;;7.70;99.90;;;;;;5046574;28;20041;-35
2022/09/23 03:24:45;;;;;;;17.33;15.52;;;7.90;99.90;;;;;;5045962;28;20495;-35
2022/09/23 03:27:17;;;;;;;19.75;15.68;;;7.80;99.90;;;;;;5046710;28;20049;-35
2022/09/23 03:29:46;;;;;;;17.52;15.73;;;8.10;99.90;;;;;;5046910;28;20112;-35
2022/09/23 03:32:14;;;;;;;17.95;15.65;;;7.80;99.90;;;;;;5046353;28;20045;-35
2022/09/23 03:34:43;;;;;;;18.33;16.42;;;8.30;99.90;;;;;;5046602;28;20045;-35
2022/09/23 03:37:11;;;;;;;17.10;15.50;;;7.90;99.90;;;;;;5046966;28;20037;-35
2022/09/23 03:39:49;;;;;;;17.58;15.77;;;7.80;99.90;;;;;;5046764;28;20103;-35
2022/09/23 03:42:25;;;;;;;17.65;15.98;;;7.70;99.90;;;;;;5047027;28;20083;-35
2022/09/23 03:44:53;;;;;;;18.05;16.25;;;7.60;99.90;;;;;;5047172;28;20044;-35
2022/09/23 03:47:20;;;;;;;18.70;16.65;;;8.30;99.90;;;;;;5046996;28;20120;-35
2022/09/23 03:49:47;;;;;;;18.05;16.23;;;7.70;99.90;;;;;;5046907;28;20037;-35
2022/09/23 03:52:14;;;;;;;19.40;15.90;;;8.00;99.90;;;;;;5046735;28;20171;-35
2022/09/23 03:54:40;;;;;;;20.00;17.70;;;7.70;99.90;;;;;;5046641;28;20052;-35
2022/09/23 03:57:06;;;;;;;19.42;16.13;;;7.50;99.90;;;;;;5046362;28;20714;-35
2022/09/23 03:59:32;;;;;;;18.23;16.27;;;7.60;99.90;;;;;;5046797;28;20045;-35
2022/09/23 04:01:59;;;;;;;18.95;17.02;;;7.70;99.90;;;;;;5046377;28;20112;-35
2022/09/23 04:04:28;;;;;;;19.92;17.02;;;7.50;99.90;;;;;;5046643;28;20033;-35
2022/09/23 04:06:55;;;;;;;21.40;17.27;;;7.40;99.90;;;;;;5046566;28;20041;-35
2022/09/23 04:09:21;;;;;;;18.67;16.70;;;8.00;99.90;;;;;;5046427;28;20063;-35
2022/09/23 04:11:48;;;;;;;19.77;16.65;;;8.10;99.90;;;;;;5046645;28;20449;-35
2022/09/23 04:14:14;;;;;;;18.08;16.17;;;8.00;99.90;;;;;;5046138;28;20124;-35
2022/09/23 04:16:40;;;;;;;19.80;17.40;;;7.10;99.90;;;;;;5046229;28;20053;-35
2022/09/23 04:19:05;;;;;;;19.17;17.17;;;7.20;99.90;;;;;;5046304;28;20430;-35
2022/09/23 04:21:31;;;;;;;19.58;17.35;;;7.00;99.90;;;;;;5046778;28;20871;-35
2022/09/23 04:23:57;;;;;;;19.75;17.77;;;6.90;99.90;;;;;;5046059;28;20045;-35
2022/09/23 04:26:23;;;;;;;22.17;18.50;;;7.70;99.90;;;;;;5046067;28;20051;-35
2022/09/23 04:28:48;;;;;;;20.13;17.92;;;7.50;99.90;;;;;;5046081;28;20045;-35
2022/09/23 04:31:14;;;;;;;19.90;17.80;;;6.80;99.90;;;;;;5046570;28;20392;-35
2022/09/23 04:33:40;;;;;;;20.90;17.48;;;6.70;99.90;;;;;;5046077;28;20396;-35
2022/09/23 04:36:06;;;;;;;19.83;17.73;;;6.80;99.90;;;;;;5047060;28;20083;-35
2022/09/23 04:38:31;;;;;;;18.98;16.95;;;6.80;99.90;;;;;;5050056;28;20040;-35
2022/09/23 04:40:57;;;;;;;19.25;17.25;;;6.80;99.90;;;;;;5050077;28;20558;-35
2022/09/23 04:43:23;;;;;;;18.83;16.92;;;6.70;99.90;;;;;;5050079;28;20148;-35
2022/09/23 04:46:03;;;;;;;19.48;17.52;;;6.60;99.90;;;;;;5049469;28;20044;-35
2022/09/23 04:48:29;;;;;;;20.45;17.30;;;7.10;99.90;;;;;;5049904;28;20391;-35
2022/09/23 04:51:10;;;;;;;22.30;19.10;;;7.00;99.90;;;;;;5049935;28;20044;-35
2022/09/23 04:53:38;;;;;;;24.23;18.52;;;6.70;99.90;;;;;;5050068;28;20079;-35
2022/09/23 04:56:10;;;;;;;20.50;18.40;;;6.80;99.90;;;;;;5049375;28;20053;-35
2022/09/23 04:58:37;;;;;;;26.08;19.83;;;6.70;99.90;;;;;;5049956;28;20045;-35
2022/09/23 05:01:24;;;;;;;19.85;17.85;;;6.50;99.90;;;;;;5031627;28;20044;-35
2022/09/23 05:03:51;;;;;;;19.83;16.60;;;7.50;99.90;;;;;;5049971;28;20049;-35
2022/09/23 05:06:17;;;;;;;20.20;18.00;;;6.50;99.90;;;;;;5050274;28;20384;-35
2022/09/23 05:08:48;;;;;;;22.20;18.95;;;6.50;99.90;;;;;;5049892;28;20052;-35
2022/09/23 05:11:15;;;;;;;20.67;17.92;;;6.60;99.90;;;;;;5029952;28;20049;-35
2022/09/23 05:13:40;;;;;;;23.23;19.55;;;6.50;99.90;;;;;;5030224;28;20040;-35
2022/09/23 05:16:10;;;;;;;25.33;19.42;;;6.50;99.90;;;;;;5030199;28;20037;-35
2022/09/23 05:18:41;;;;;;;21.30;19.23;;;6.70;99.90;;;;;;5030058;28;20549;-35
2022/09/23 05:21:12;;;;;;;19.50;17.50;;;6.60;99.90;;;;;;5030433;28;20052;-35
2022/09/23 05:23:39;;;;;;;20.13;17.98;;;7.20;99.90;;;;;;5030501;28;20041;-35
2022/09/23 05:26:07;;;;;;;21.33;17.90;;;7.00;99.90;;;;;;5030272;28;20080;-35
2022/09/23 05:28:33;;;;;;;19.58;17.08;;;6.50;99.90;;;;;;5030243;28;20040;-35
2022/09/23 05:31:06;;;;;;;18.95;16.92;;;6.90;99.90;;;;;;5029883;28;20045;-35
2022/09/23 05:33:34;;;;;;;19.63;17.52;;;6.70;99.90;;;;;;5029958;28;20120;-35
2022/09/23 05:36:00;;;;;;;19.13;17.08;;;6.70;99.90;;;;;;5029600;28;20045;-35
2022/09/23 05:38:30;;;;;;;19.33;16.90;;;6.80;99.90;;;;;;5029191;28;20041;-35
2022/09/23 05:40:56;;;;;;;19.55;17.30;;;6.70;99.90;;;;;;5029370;28;20041;-35
2022/09/23 05:43:22;;;;;;;20.83;18.63;;;6.60;99.90;;;;;;5029231;28;20056;-35
2022/09/23 05:45:47;;;;;;;22.83;18.05;;;6.60;99.90;;;;;;5029392;28;20103;-35
2022/09/23 05:48:13;;;;;;;22.05;18.80;;;6.60;99.90;;;;;;5028251;28;20440;-35
2022/09/23 05:50:39;;;;;;;18.40;15.95;;;6.60;99.90;;;;;;5029190;28;20480;-35
2022/09/23 05:53:04;;;;;;;18.98;16.98;;;7.60;99.90;;;;;;5028510;28;20100;-35
2022/09/23 05:55:30;;;;;;;18.92;16.30;;;7.70;99.90;;;;;;5028413;28;20049;-35
2022/09/23 05:57:56;;;;;;;18.60;16.70;;;7.80;99.90;;;;;;5028869;28;20041;-35
2022/09/23 06:00:21;;;;;;;17.35;15.55;;;6.90;99.90;;;;;;5028766;28;20386;-35
2022/09/23 06:02:48;;;;;;;17.33;15.57;;;7.00;99.90;;;;;;5028694;28;20040;-35
2022/09/23 06:05:15;;;;;;;17.20;14.73;;;7.00;99.90;;;;;;5028813;28;20435;-35
2022/09/23 06:07:40;;;;;;;16.08;14.30;;;7.30;99.90;;;;;;5028864;28;20683;-35
2022/09/23 06:10:07;;;;;;;17.52;14.82;;;7.20;99.90;;;;;;5039460;28;20059;-35
2022/09/23 06:12:34;;;;;;;16.70;14.93;;;7.40;99.90;;;;;;5048084;28;20641;-35
2022/09/23 06:14:59;;;;;;;16.27;14.48;;;7.50;99.90;;;;;;5047828;28;20053;-35
2022/09/23 06:17:25;;;;;;;16.48;14.68;;;7.30;99.90;;;;;;5048333;28;20048;-35
2022/09/23 06:19:51;;;;;;;18.58;14.43;;;7.60;99.90;;;;;;5048143;28;20055;-35
2022/09/23 06:22:17;;;;;;;16.40;14.70;;;8.20;99.90;;;;;;5047237;28;20098;-35
2022/09/23 06:24:43;;;;;;;16.38;13.93;;;7.70;99.90;;;;;;5047642;28;20049;-36
2022/09/23 06:27:09;;;;;;;16.55;14.95;;;7.90;99.90;;;;;;5047302;28;20049;-35
2022/09/23 06:29:35;;;;;;;16.92;15.07;;;7.90;99.90;;;;;;5047525;28;20154;-35
2022/09/23 06:32:01;;;;;;;17.92;14.05;;;8.00;99.90;;;;;;5047296;28;20670;-35
2022/09/23 06:34:26;;;;;;;15.18;13.63;;;8.30;99.90;;;;;;5029289;28;20784;-35
2022/09/23 06:36:54;;;;;;;16.40;13.70;;;9.30;99.90;;;;;;5047263;28;20049;-35
2022/09/23 06:39:20;;;;;;;14.85;12.98;;;9.40;99.90;;;;;;5046665;28;20140;-35
2022/09/23 06:41:45;;;;;;;17.60;14.05;;;8.80;99.90;;;;;;5046731;28;20115;-35
2022/09/23 06:44:12;;;;;;;15.60;14.00;;;8.90;99.90;;;;;;5046885;28;20040;-36
2022/09/23 06:46:38;;;;;;;18.55;12.57;;;9.10;99.90;;;;;;5047741;28;20048;-35
2022/09/23 06:49:04;;;;;;;18.67;13.50;;;9.50;99.90;;;;;;5047758;28;20049;-35
2022/09/23 06:51:29;;;;;;;14.60;12.32;;;9.20;99.90;;;;;;5047957;28;20090;-35
2022/09/23 06:53:55;;;;;;;14.63;12.48;;;9.50;99.90;;;;;;5047592;28;20502;-35
2022/09/23 06:56:21;;;;;;;13.77;12.38;;;9.90;99.90;;;;;;5046925;28;20398;-35
2022/09/23 06:58:49;;;;;;;12.90;11.52;;;9.50;99.90;;;;;;5046736;28;20399;-35
2022/09/23 07:01:16;;;;;;;14.68;11.30;;;9.90;99.90;;;;;;5046971;28;20041;-35
2022/09/23 07:03:44;;;;;;;14.35;10.68;;;10.00;99.90;;;;;;5047501;28;20152;-35
2022/09/23 07:06:10;;;;;;;12.73;10.25;;;11.00;99.90;;;;;;5047418;28;20076;-35
2022/09/23 07:08:36;;;;;;;11.85;10.65;;;10.10;99.90;;;;;;5047089;28;20072;-35
2022/09/23 07:11:04;;;;;;;14.75;10.35;;;10.30;99.90;;;;;;5046958;28;20049;-36
2022/09/23 07:13:32;;;;;;;12.35;9.60;;;10.40;99.90;;;;;;5047298;28;20053;-35
2022/09/23 07:16:00;;;;;;;13.38;11.13;;;10.40;99.90;;;;;;5047473;28;20045;-35
2022/09/23 07:18:27;;;;;;;12.77;10.90;;;10.40;99.90;;;;;;5046886;28;20051;-35
2022/09/23 07:20:56;;;;;;;12.15;9.57;;;10.50;99.90;;;;;;5047425;28;20127;-35
2022/09/23 07:23:22;;;;;;;11.98;9.75;;;10.80;99.90;;;;;;5046451;28;20076;-35
2022/09/23 07:25:50;;;;;;;11.30;9.43;;;10.70;99.90;;;;;;5046755;28;20045;-35
2022/09/23 07:28:17;;;;;;;12.23;9.10;;;10.70;99.90;;;;;;5046247;28;20045;-35
2022/09/23 07:30:44;;;;;;;11.73;9.50;;;10.90;99.90;;;;;;5046815;28;20033;-35
2022/09/23 07:33:10;;;;;;;11.45;9.13;;;10.80;99.90;;;;;;5046112;28;20044;-36
2022/09/23 07:35:39;;;;;;;10.38;9.38;;;11.00;99.90;;;;;;5046315;28;20571;-35
2022/09/23 07:38:06;;;;;;;11.75;9.57;;;11.10;99.90;;;;;;5045895;28;20055;-35
2022/09/23 07:40:32;;;;;;;12.63;9.68;;;11.10;99.90;;;;;;5046129;28;20045;-35
2022/09/23 07:42:58;;;;;;;10.07;8.88;;;11.30;99.90;;;;;;5045970;28;20091;-36
2022/09/23 07:45:26;;;;;;;12.43;9.55;;;12.20;99.90;;;;;;5046012;28;20055;-35
2022/09/23 07:47:52;;;;;;;11.43;9.35;;;12.20;99.90;;;;;;5046430;28;20140;-35
2022/09/23 07:50:18;;;;;;;9.57;8.57;;;11.70;99.90;;;;;;5046040;28;20352;-35
2022/09/23 07:52:44;;;;;;;13.90;10.18;;;11.90;99.90;;;;;;5046558;28;20047;-35
2022/09/23 07:55:09;;;;;;;11.98;9.90;;;12.10;99.90;;;;;;5046517;28;20106;-35
2022/09/23 07:57:35;;;;;;;11.13;9.05;;;12.10;99.90;;;;;;5046689;28;20430;-35
2022/09/23 08:00:02;;;;;;;13.45;8.40;;;12.00;99.90;;;;;;5047063;28;20047;-35
2022/09/23 08:02:27;;;;;;;10.15;8.85;;;12.10;99.90;;;;;;5046690;28;20044;-35
2022/09/23 08:04:56;;;;;;;10.90;8.63;;;;;;;;;;5046984;28;20067;-35
2022/09/23 08:07:21;;;;;;;11.05;9.02;;;12.30;99.90;;;;;;5046435;28;20670;-35
2022/09/23 08:09:47;;;;;;;9.73;8.73;;;12.70;99.90;;;;;;5042168;28;20060;-46
2022/09/23 08:12:16;;;;;;;9.75;8.75;;;12.40;99.90;;;;;;5014017;28;20388;-41
2022/09/23 08:14:42;;;;;;;10.15;9.02;;;12.80;99.90;;;;;;5019393;28;20045;-44
2022/09/23 08:17:10;;;;;;;9.73;8.32;;;13.00;99.90;;;;;;5021098;28;20123;-41
2022/09/23 08:19:35;;;;;;;12.50;9.38;;;12.60;99.90;;;;;;5021715;28;20087;-44
2022/09/23 08:22:01;;;;;;;10.75;9.02;;;12.70;99.90;;;;;;5022104;28;20049;-47
2022/09/23 08:24:29;;;;;;;10.85;8.30;;;13.10;99.90;;;;;;5021434;28;20041;-47
2022/09/23 08:26:54;;;;;;;9.68;8.27;;;12.80;99.90;;;;;;5021576;28;20538;-45
2022/09/23 08:29:26;;;;;;;11.98;7.95;;;13.20;99.90;;;;;;5021791;28;20055;-45
2022/09/23 08:31:53;;;;;;;10.38;8.85;;;12.80;99.90;;;;;;5021472;28;20045;-46
2022/09/23 08:34:20;;;;;;;11.90;8.52;;;13.20;99.90;;;;;;5020915;28;20515;-47
2022/09/23 08:36:46;;;;;;;9.10;8.00;;;13.00;99.90;;;;;;5020334;28;20048;-54
2022/09/23 08:39:16;;;;;;;12.18;8.52;;;13.20;99.90;;;;;;5020485;28;20514;-51
2022/09/23 08:41:47;;;;;;;10.50;8.48;;;13.50;99.90;;;;;;5021149;28;20077;-48
2022/09/23 08:44:18;;;;;;;12.23;8.75;;;13.10;99.90;;;;;;5019510;28;20052;-46
2022/09/23 08:46:53;;;;;;;8.77;7.80;;;13.70;99.90;;;;;;5021025;28;20045;-57
2022/09/23 08:49:26;;;;;;;10.80;7.80;;;13.50;99.90;;;;;;5021146;28;20050;-54
2022/09/23 08:51:53;;;;;;;9.57;8.15;;;13.30;99.90;;;;;;5019384;28;20308;-57
2022/09/23 08:54:19;;;;;;;9.32;8.18;;;13.30;99.90;;;;;;5020986;28;20037;-58
2022/09/23 08:56:51;;;;;;;12.57;8.80;;;13.90;99.90;;;;;;5020675;28;20092;-58
2022/09/23 08:59:41;;;;;;;9.20;7.40;;;13.40;99.90;;;;;;5020505;28;20124;-58
2022/09/23 09:02:21;;;;;;;10.95;7.93;;;13.50;99.90;;;;;;5019523;28;20052;-57
2022/09/23 09:04:52;;;;;;;10.13;7.53;;;14.00;99.90;;;;;;5021720;28;20582;-58
2022/09/23 09:07:22;;;;;;;9.23;8.25;;;13.70;99.90;;;;;;5021508;28;20060;-59
2022/09/23 09:10:14;;;;;;;11.20;8.00;;;14.30;99.90;;;;;;5029290;28;20411;-59
2022/09/23 09:12:44;;;;;;;10.82;8.10;;;14.00;99.90;;;;;;5031640;28;20528;-58
2022/09/23 09:15:18;;;;;;;9.57;8.18;;;14.50;99.90;;;;;;5039779;28;20517;-58
2022/09/23 09:17:58;;;;;;;10.30;7.72;;;14.70;99.90;;;;;;5040568;28;20088;-51
2022/09/23 09:20:33;;;;;;;9.27;8.25;;;15.20;99.90;;;;;;5040983;28;20037;-57
2022/09/23 09:23:02;;;;;;;9.95;8.13;;;14.80;99.90;;;;;;5042421;28;20037;-48
2022/09/23 09:25:56;;;;;;;9.38;7.85;;;14.80;99.90;;;;;;5044149;28;20063;-50
2022/09/23 09:28:29;;;;;;;11.20;7.53;;;14.90;99.90;;;;;;5043598;28;20650;-50
2022/09/23 09:31:21;;;;;;;8.85;7.55;;;15.00;99.90;;;;;;5043851;28;20121;-48
2022/09/23 09:33:59;;;;;;;11.40;8.00;;;15.10;99.90;;;;;;5043411;28;20535;-47
2022/09/23 09:36:57;;;;;;;9.98;7.40;;;15.30;99.90;;;;;;5043975;28;20041;-50
2022/09/23 09:39:22;;;;;;;9.13;7.15;;;15.20;99.90;;;;;;5043749;28;20041;-49
2022/09/23 09:41:54;;;;;;;10.75;6.10;;;15.30;99.90;;;;;;5044172;28;20056;-48
2022/09/23 09:44:49;;;;;;;10.02;6.30;;;15.40;99.90;;;;;;5044231;28;20041;-52
2022/09/23 09:47:45;;;;;;;8.98;6.68;;;15.60;99.90;;;;;;5044158;28;20053;-46
2022/09/23 09:50:35;;;;;;;7.47;6.13;;;17.50;99.90;;;;;;5044071;28;20053;-45
2022/09/23 09:53:24;;;;;;;10.68;6.38;;;15.70;99.90;;;;;;5043835;28;20049;-45
2022/09/23 09:56:01;;;;;;;7.75;6.25;;;15.70;99.90;;;;;;5043709;28;20049;-45
2022/09/23 09:58:45;;;;;;;12.40;6.20;;;15.80;99.90;;;;;;5042833;28;20040;-45
2022/09/23 10:01:26;;;;;;;9.25;6.15;;;15.90;99.90;;;;;;5043059;28;20044;-45
2022/09/23 10:04:02;;;;;;;10.35;6.28;;;15.90;99.90;;;;;;5042950;28;20044;-46
2022/09/23 10:06:37;;;;;;;7.50;5.70;;;16.00;99.90;;;;;;5044504;28;20076;-45
2022/09/23 10:09:07;;;;;;;8.80;6.40;;;16.20;99.90;;;;;;5043001;28;20053;-45
2022/09/23 10:11:33;;;;;;;7.43;5.68;;;16.40;99.90;;;;;;5032880;28;20132;-42
2022/09/23 10:14:11;;;;;;;9.07;6.97;;;16.60;99.90;;;;;;5041099;28;20041;-43
2022/09/23 10:16:37;;;;;;;8.55;5.80;;;16.80;99.90;;;;;;5041675;28;20122;-43
2022/09/23 10:19:09;;;;;;;9.95;6.57;;;16.90;99.90;;;;;;5043901;28;20045;-43
2022/09/23 10:21:37;;;;;;;8.15;5.30;;;17.00;99.90;;;;;;5043496;28;20052;-44
2022/09/23 10:24:07;;;;;;;16.30;6.15;;;17.00;99.90;;;;;;5041815;28;20577;-43
2022/09/23 10:26:40;;;;;;;7.53;4.82;;;17.10;99.90;;;;;;5043333;28;20075;-41
2022/09/23 10:29:30;;;;;;;5.50;4.88;;;17.00;99.90;;;;;;5044115;28;20068;-40
2022/09/23 10:32:22;;;;;;;7.43;4.97;;;17.00;99.90;;;;;;5043961;28;20053;-43
2022/09/23 10:34:52;;;;;;;6.90;5.18;;;16.90;99.90;;;;;;5042838;28;20439;-40
2022/09/23 10:37:45;;;;;;;7.55;5.13;;;16.80;99.90;;;;;;5041367;28;20859;-46
2022/09/23 10:46:38;;;;;;;7.57;5.30;;;16.80;99.90;;;;;;5042291;28;20056;-43
2022/09/23 10:49:26;;;;;;;8.55;4.82;;;16.70;99.90;;;;;;5043279;28;20857;-41
2022/09/23 10:52:10;;;;;;;7.05;5.43;;;16.80;99.90;;;;;;5042445;28;20053;-41
2022/09/23 10:55:04;;;;;;;7.57;5.00;;;16.80;99.90;;;;;;5043272;28;20140;-43
2022/09/23 10:57:45;;;;;;;7.45;5.30;;;16.80;99.90;;;;;;5042245;28;20055;-42
2022/09/23 11:00:56;;;;;;;8.73;5.60;;;17.00;99.90;;;;;;5041993;28;20079;-39
2022/09/23 11:03:37;;;;;;;10.32;5.18;;;16.80;99.90;;;;;;5041893;28;20496;-38
2022/09/23 11:06:17;;;;;;;11.23;5.63;;;16.80;99.90;;;;;;5042411;28;20056;-40
2022/09/23 11:08:49;;;;;;;7.45;4.97;;;16.90;99.90;;;;;;5042889;28;20048;-40
2022/09/23 11:11:34;;;;;;;;;;;17.30;99.90;;;;;;5043126;28;20048;-38
2022/09/23 11:14:33;;;;;;;8.07;5.30;;;17.00;99.90;;;;;;5042255;28;19946;-37
2022/09/23 11:17:30;;;;;;;7.15;5.32;;;16.90;99.90;;;;;;5035813;28;20516;-37
2022/09/23 11:20:22;;;;;;;7.18;5.30;;;16.80;99.90;;;;;;5040043;28;20487;-42
2022/09/23 11:23:07;;;;;;;6.47;5.23;;;16.80;99.50;;;;;;5044387;28;20049;-39
2022/09/23 11:26:10;;;;;;;8.77;5.25;;;16.80;99.90;;;;;;5040673;28;20766;-39
2022/09/23 11:29:06;;;;;;;7.55;5.70;;;16.90;99.90;;;;;;5041210;28;20049;-39
2022/09/23 11:31:37;;;;;;;6.85;5.18;;;17.00;99.90;;;;;;5040693;28;20509;-37
2022/09/23 11:34:21;;;;;;;7.68;5.47;;;17.10;99.90;;;;;;5042463;28;20037;-38
2022/09/23 11:37:12;;;;;;;7.63;5.20;;;17.10;99.90;;;;;;5040780;28;20056;-36
2022/09/23 11:39:49;;;;;;;7.85;5.40;;;17.20;99.80;;;;;;5041338;28;20037;-37
2022/09/23 11:42:30;;;;;;;8.63;5.72;;;17.20;99.80;;;;;;5039669;28;20402;-37
2022/09/23 11:45:13;;;;;;;6.65;5.55;;;17.20;99.90;;;;;;5040012;28;20123;-36
2022/09/23 11:47:58;;;;;;;6.75;5.43;;;17.20;99.90;;;;;;5040755;28;20391;-36
2022/09/23 11:50:33;;;;;;;7.72;5.38;;;17.10;99.90;;;;;;5041923;28;20036;-37
2022/09/23 11:53:10;;;;;;;8.85;5.25;;;17.10;99.90;;;;;;5041475;28;20052;-37
2022/09/23 11:55:59;;;;;;;9.50;5.15;;;17.10;99.90;;;;;;5041445;28;20566;-37
2022/09/23 11:58:30;;;;;;;6.53;5.38;;;17.10;99.90;;;;;;5041694;28;20127;-36
2022/09/23 12:01:06;;;;;;;7.25;5.20;;;17.00;99.90;;;;;;5040322;28;20036;-36
2022/09/23 12:03:42;;;;;;;7.38;5.30;;;16.90;99.90;;;;;;5040959;28;20049;-38
2022/09/23 12:06:42;;;;;;;7.72;5.45;;;17.20;99.90;;;;;;5041338;28;20049;-38
2022/09/23 12:09:19;;;;;;;6.78;5.20;;;16.80;99.90;;;;;;5040696;28;20144;-38
2022/09/23 12:11:58;;;;;;;7.38;4.88;;;16.80;99.90;;;;;;5040903;28;20658;-39
2022/09/23 12:14:33;;;;;;;9.60;5.80;;;17.00;99.90;;;;;;5032192;28;20053;-46
2022/09/23 12:17:02;;;;;;;9.10;6.07;;;16.60;99.90;;;;;;5041766;28;20506;-45
2022/09/23 12:20:05;;;;;;;8.20;5.15;;;16.60;99.90;;;;;;5041226;28;20048;-41
2022/09/23 12:22:46;;;;;;;6.72;6.03;;;16.50;99.90;;;;;;5041923;28;20095;-43
2022/09/23 12:25:24;;;;;;;7.18;5.47;;;16.50;99.90;;;;;;5042072;28;20045;-43
2022/09/23 12:27:54;;;;;;;10.00;6.07;;;16.50;99.90;;;;;;5042995;28;20122;-42
2022/09/23 12:30:26;;;;;;;8.57;5.93;;;16.50;99.90;;;;;;5042235;28;20044;-45
2022/09/23 12:32:53;;;;;;;;;;;16.50;99.90;;;;;;5042267;28;20041;-46
2022/09/23 12:35:24;;;;;;;9.60;5.90;;;16.50;99.90;;;;;;5041674;28;19920;-38
2022/09/23 12:37:50;;;;;;;7.78;5.80;;;16.90;99.90;;;;;;5040942;28;20060;-37
2022/09/23 12:40:20;;;;;;;7.18;6.20;;;16.60;99.90;;;;;;5040908;28;20564;-38
2022/09/23 12:42:47;;;;;;;8.90;6.70;;;16.70;99.90;;;;;;5040751;28;20567;-36
2022/09/23 12:45:39;;;;;;;10.80;6.47;;;16.80;99.90;;;;;;5041165;28;20466;-36
2022/09/23 12:48:17;;;;;;;8.15;6.72;;;16.80;99.90;;;;;;5042309;28;20049;-48
2022/09/23 12:51:02;;;;;;;9.65;6.40;;;16.70;99.90;;;;;;5046864;28;20056;-47
2022/09/23 12:53:59;;;;;;;10.65;7.57;;;16.80;99.90;;;;;;5045554;28;20048;-48
2022/09/23 12:56:42;;;;;;;6.95;6.20;;;16.90;99.90;;;;;;5044578;28;20751;-49
2022/09/23 12:59:16;;;;;;;11.50;6.60;;;17.00;99.90;;;;;;5048628;28;20554;-43
2022/09/23 13:01:43;;;;;;;8.20;7.20;;;17.00;99.90;;;;;;5048252;28;20044;-40
2022/09/23 13:07:29;;;;;;;11.40;6.65;;;17.00;99.90;;;;;;5017115;28;20049;-41
2022/09/23 13:10:17;;;;;;;8.55;7.00;;;17.00;99.90;;;;;;5048139;28;20049;-42
2022/09/23 13:12:45;;;;;;;9.02;6.90;;;17.00;99.90;;;;;;5050756;28;20094;-41
2022/09/23 13:15:27;;;;;;;9.00;6.45;;;17.10;99.90;;;;;;5052512;28;20080;-44
2022/09/23 13:18:19;;;;;;;10.70;7.25;;;17.10;99.90;;;;;;5054288;28;20099;-42
2022/09/23 13:20:55;;;;;;;8.20;6.83;;;17.20;99.90;;;;;;5055177;28;20033;-44
2022/09/23 13:23:25;;;;;;;8.48;6.35;;;17.20;99.90;;;;;;5053756;28;20037;-45